Heat Index SAI AWOS Graphical Display Untitled Document
Sidney Municipal Airport , NY ( N23 )
000
00:20
18/08/21
00
N/A
N/A
30.14
N/A
1027
65(F), 18(C)
64(F), 18(C)
65 F
100%
SCT055
10
N/A
N/A
N/A
00:20 zulu Wind Calm, Altimeter 30.14
METAR KN23 210020Z AUTO 00000KT 10SM SCT055 18/18 A3014 A02
METAR:
FAA Disclaimer--Advisory Use ONLY, not for flight info-- 6/29/2009: Sidney Airport, operations 607-561-2346, Pilots with cellphones (smartphones) can now view awos at http://www.saiawos3.com/N23
INFO:
Wind Direction:
Wind Speed:
Wind Gust:
Wind Variable:
Altimeter:
Dens Alt:
Elev:
Temp:
Dwpt:
Wind Chill
Rel Humidity:
Ceiling:
Visibility:
Prsnt Wea:
PCPN:
Remarks:
How to read the WebPage